Time;durP1;ratioP1;P1;durP2;ratioP2;P2;SDS_P1;SDS_P2;PMS_P1;PMS_P2;Temp;Humidity;BMP_temperature;BMP_pressure;BME280_temperature;BME280_humidity;BME280_pressure;Samples;Min_cycle;Max_cycle;Signal;HPM_P1;HPM_P2
2022/01/03 00:00:24;;;;;;;7.07;2.13;;;;;;;;;;4980784;28;20078;-82
2022/01/03 00:02:51;;;;;;;7.60;1.67;;;;;;;;;;4996852;28;20049;-82
2022/01/03 00:05:16;;;;;;;6.10;1.88;;;;;;;;;;4976972;28;20500;-83
2022/01/03 00:07:45;;;;;;;3.88;1.70;;;;;;;;;;4995619;28;20078;-82
2022/01/03 00:10:11;;;;;;;6.03;1.70;;;;;;;;;;4995649;28;20021;-82
2022/01/03 00:12:41;;;;;;;5.40;1.85;;;;;;;;;;4979398;28;20091;-83
2022/01/03 00:15:08;;;;;;;8.52;1.42;;;;;;;;;;4982641;28;20022;-83
2022/01/03 00:17:37;;;;;;;3.47;1.63;;;;;;;;;;5000225;28;20007;-84
2022/01/03 00:20:02;;;;;;;;;;;;;;;;;;4983453;28;20003;-82
2022/01/03 00:22:29;;;;;;;6.07;2.00;;;;;;;;;;4973854;28;20001;-85
2022/01/03 00:25:01;;;;;;;7.70;1.75;;;;;;;;;;4963862;28;20364;-83
2022/01/03 00:27:35;;;;;;;4.25;1.52;;;;;;;;;;4977989;28;20029;-82
2022/01/03 00:30:01;;;;;;;8.60;1.63;;;;;;;;;;4981369;28;20019;-83
2022/01/03 00:37:42;;;;;;;2.35;0.95;;;;;;;;;;5685159;23;20031;-84
2022/01/03 00:50:30;;;;;;;0.82;0.45;;;;;;;;;;5679172;23;20066;-85
2022/01/03 01:39:38;;;;;;;2.83;0.40;;;;;;;;;;5451728;23;20077;-84
2022/01/03 01:52:22;;;;;;;1.42;0.30;;;;;;;;;;4979379;28;20027;-82
2022/01/03 01:54:47;;;;;;;;;;;;;;;;;;4964377;28;20030;-83
2022/01/03 01:57:17;;;;;;;4.38;0.30;;;;;;;;;;4964037;28;19930;-83
2022/01/03 02:02:26;;;;;;;6.03;1.58;;;;;;;;;;5719418;23;20038;-83
2022/01/03 02:07:40;;;;;;;1.52;0.32;;;;;;;;;;5516187;23;20426;-82
2022/01/03 02:10:13;;;;;;;3.28;0.60;;;;;;;;;;5492034;23;20023;-83
2022/01/03 02:12:40;;;;;;;1.95;0.40;;;;;;;;;;5464819;23;20026;-84
2022/01/03 02:15:11;;;;;;;2.53;0.40;;;;;;;;;;4999721;28;20006;-83
2022/01/03 02:17:37;;;;;;;3.25;0.60;;;;;;;;;;4982995;28;20013;-83
2022/01/03 02:20:05;;;;;;;0.40;0.30;;;;;;;;;;5004524;23;20026;-83
2022/01/03 02:22:31;;;;;;;2.47;0.47;;;;;;;;;;5600368;23;20031;-82
2022/01/03 02:24:57;;;;;;;1.02;0.40;;;;;;;;;;4999082;28;20022;-84
2022/01/03 02:27:23;;;;;;;2.83;0.55;;;;;;;;;;4999442;28;20090;-84
2022/01/03 02:29:49;;;;;;;1.73;0.30;;;;;;;;;;4999401;28;20041;-83
2022/01/03 02:32:15;;;;;;;1.35;0.50;;;;;;;;;;4982528;28;20015;-83
2022/01/03 02:34:43;;;;;;;1.27;0.60;;;;;;;;;;5135312;23;20021;-83
2022/01/03 02:45:06;;;;;;;1.70;0.52;;;;;;;;;;5177506;23;20091;-82
2022/01/03 02:50:08;;;;;;;2.85;0.40;;;;;;;;;;5961631;23;20038;-83
2022/01/03 02:52:38;;;;;;;2.42;0.40;;;;;;;;;;4999284;28;20014;-83
2022/01/03 02:55:05;;;;;;;0.65;0.38;;;;;;;;;;5038232;23;20026;-83
2022/01/03 02:57:36;;;;;;;0.82;0.55;;;;;;;;;;4982750;28;20027;-83
2022/01/03 03:00:03;;;;;;;1.05;0.40;;;;;;;;;;4999308;28;20038;-83
2022/01/03 03:02:31;;;;;;;4.85;0.82;;;;;;;;;;4999241;28;20006;-84
2022/01/03 03:05:01;;;;;;;2.83;0.50;;;;;;;;;;4980462;28;20027;-84
2022/01/03 03:07:31;;;;;;;2.30;0.85;;;;;;;;;;4994345;28;20046;-83
2022/01/03 03:10:01;;;;;;;1.30;0.60;;;;;;;;;;4995149;28;20011;-84
2022/01/03 03:12:27;;;;;;;1.40;0.50;;;;;;;;;;5000366;28;20014;-83
2022/01/03 03:14:53;;;;;;;1.60;0.40;;;;;;;;;;5204772;23;20054;-83
2022/01/03 03:17:21;;;;;;;4.63;0.90;;;;;;;;;;4983247;28;20020;-83
2022/01/03 03:19:50;;;;;;;2.83;0.90;;;;;;;;;;4982290;28;20030;-83
2022/01/03 03:22:16;;;;;;;3.40;0.70;;;;;;;;;;5279802;23;20047;-80
2022/01/03 03:24:42;;;;;;;2.45;0.60;;;;;;;;;;5021992;28;20040;-83
2022/01/03 03:27:11;;;;;;;2.60;0.73;;;;;;;;;;5021647;28;20029;-83
2022/01/03 03:29:45;;;;;;;1.25;0.43;;;;;;;;;;5021028;28;20026;-82
2022/01/03 03:32:11;;;;;;;1.30;0.70;;;;;;;;;;4986985;28;20034;-83
2022/01/03 03:34:39;;;;;;;3.05;1.13;;;;;;;;;;5002225;28;20007;-83
2022/01/03 03:37:05;;;;;;;4.47;1.17;;;;;;;;;;4985333;28;20034;-83
2022/01/03 03:39:39;;;;;;;1.25;0.45;;;;;;;;;;5002173;28;20030;-82
2022/01/03 03:42:06;;;;;;;2.63;0.90;;;;;;;;;;4982519;28;20011;-82
2022/01/03 03:44:32;;;;;;;3.85;0.80;;;;;;;;;;4999637;28;20034;-83
2022/01/03 03:47:02;;;;;;;4.90;1.40;;;;;;;;;;4998770;28;20082;-83
2022/01/03 03:49:29;;;;;;;8.48;0.77;;;;;;;;;;4998977;28;20047;-84
2022/01/03 03:51:54;;;;;;;2.90;0.85;;;;;;;;;;4999696;28;20026;-83
2022/01/03 03:54:23;;;;;;;4.72;1.27;;;;;;;;;;4999560;28;20014;-83
2022/01/03 03:56:49;;;;;;;2.28;0.73;;;;;;;;;;5000126;28;20066;-83
2022/01/03 03:59:16;;;;;;;3.42;0.70;;;;;;;;;;4983595;28;20034;-83
2022/01/03 04:01:43;;;;;;;1.77;0.82;;;;;;;;;;5000400;28;20025;-83
2022/01/03 04:04:09;;;;;;;3.22;0.70;;;;;;;;;;5146812;23;20046;-84
2022/01/03 04:09:13;;;;;;;4.30;0.95;;;;;;;;;;5605358;23;20042;-81
2022/01/03 04:14:14;;;;;;;1.92;0.70;;;;;;;;;;5076877;23;20127;-84
2022/01/03 04:16:40;;;;;;;3.17;0.90;;;;;;;;;;5629212;23;20050;-83
2022/01/03 04:19:09;;;;;;;2.60;0.85;;;;;;;;;;4982129;28;20014;-84
2022/01/03 04:26:49;;;;;;;5.57;1.13;;;;;;;;;;5053401;23;20064;-82
2022/01/03 04:29:15;;;;;;;3.83;1.00;;;;;;;;;;5001590;28;20071;-84
2022/01/03 04:34:16;;;;;;;6.95;1.27;;;;;;;;;;5137379;23;20094;-82
2022/01/03 04:36:42;;;;;;;4.15;1.20;;;;;;;;;;5000946;28;20011;-84
2022/01/03 04:39:08;;;;;;;5.50;1.50;;;;;;;;;;4983854;28;20007;-83
2022/01/03 04:41:34;;;;;;;5.93;1.20;;;;;;;;;;4999485;28;20006;-82
2022/01/03 04:44:00;;;;;;;6.40;1.70;;;;;;;;;;4998340;28;20050;-83
2022/01/03 04:46:25;;;;;;;10.32;2.05;;;;;;;;;;4997890;28;20031;-82
2022/01/03 04:48:51;;;;;;;4.50;1.63;;;;;;;;;;4981205;28;20039;-82
2022/01/03 04:51:17;;;;;;;3.28;1.48;;;;;;;;;;4996497;28;20025;-83
2022/01/03 04:53:45;;;;;;;10.25;1.70;;;;;;;;;;4996819;28;20019;-83
2022/01/03 04:56:12;;;;;;;10.68;2.25;;;;;;;;;;4998256;28;20023;-83
2022/01/03 04:58:39;;;;;;;6.25;2.13;;;;;;;;;;4980864;28;20034;-83
2022/01/03 05:01:08;;;;;;;5.75;1.88;;;;;;;;;;4998533;28;20015;-82
2022/01/03 05:03:35;;;;;;;6.28;2.15;;;;;;;;;;5000409;28;20067;-83
2022/01/03 05:06:02;;;;;;;6.88;2.13;;;;;;;;;;4983444;28;20029;-83
2022/01/03 05:08:31;;;;;;;7.25;2.17;;;;;;;;;;5000563;28;20046;-83
2022/01/03 05:11:00;;;;;;;4.68;2.33;;;;;;;;;;4983378;28;20018;-85
2022/01/03 05:13:27;;;;;;;5.07;2.25;;;;;;;;;;4983273;28;20003;-83
2022/01/03 05:15:56;;;;;;;8.80;1.65;;;;;;;;;;5000614;28;20022;-83
2022/01/03 05:21:02;;;;;;;8.82;2.00;;;;;;;;;;5538443;23;19914;-83
2022/01/03 05:26:04;;;;;;;7.30;1.85;;;;;;;;;;5433352;23;20057;-83
2022/01/03 05:28:34;;;;;;;6.22;2.10;;;;;;;;;;4999183;28;20023;-85
2022/01/03 05:31:01;;;;;;;4.00;1.80;;;;;;;;;;5000058;28;20010;-83
2022/01/03 05:33:27;;;;;;;10.60;2.40;;;;;;;;;;5014732;23;20043;-84
2022/01/03 05:35:56;;;;;;;7.13;2.10;;;;;;;;;;4980664;28;20003;-84
2022/01/03 05:38:24;;;;;;;4.80;1.98;;;;;;;;;;4980692;28;20025;-82
2022/01/03 05:40:50;;;;;;;5.35;2.50;;;;;;;;;;4980575;28;20022;-83
2022/01/03 05:43:16;;;;;;;6.40;2.55;;;;;;;;;;4980328;28;20020;-83
2022/01/03 05:45:41;;;;;;;13.68;3.63;;;;;;;;;;4963667;28;20055;-82
2022/01/03 05:48:07;;;;;;;5.57;2.35;;;;;;;;;;4979319;28;20051;-82
2022/01/03 05:50:33;;;;;;;6.15;1.85;;;;;;;;;;4978930;28;20015;-83
2022/01/03 05:52:58;;;;;;;6.88;2.30;;;;;;;;;;4978853;28;20038;-82
2022/01/03 05:55:24;;;;;;;5.28;1.98;;;;;;;;;;4961439;29;20034;-82
2022/01/03 05:57:49;;;;;;;4.90;1.77;;;;;;;;;;4975517;29;20026;-82
2022/01/03 06:00:17;;;;;;;4.70;1.60;;;;;;;;;;4968208;28;20011;-82
2022/01/03 06:02:43;;;;;;;7.97;2.53;;;;;;;;;;4969405;29;20035;-82
2022/01/03 06:05:17;;;;;;;5.95;1.70;;;;;;;;;;4967677;29;20023;-82
2022/01/03 06:07:42;;;;;;;7.85;1.70;;;;;;;;;;4965273;29;20024;-82
2022/01/03 06:10:09;;;;;;;5.93;1.73;;;;;;;;;;4965124;28;20110;-82
2022/01/03 06:12:34;;;;;;;7.88;1.70;;;;;;;;;;4964659;29;20023;-82
2022/01/03 06:15:00;;;;;;;6.90;1.88;;;;;;;;;;4970302;29;20038;-82
2022/01/03 06:17:25;;;;;;;5.90;1.70;;;;;;;;;;4953106;29;20121;-82
2022/01/03 06:19:51;;;;;;;5.38;1.48;;;;;;;;;;4953487;29;20028;-81
2022/01/03 06:22:17;;;;;;;9.93;1.88;;;;;;;;;;4971268;28;20482;-82
2022/01/03 06:24:43;;;;;;;6.60;1.92;;;;;;;;;;4971317;29;20023;-81
2022/01/03 06:27:08;;;;;;;3.40;1.60;;;;;;;;;;4953292;29;20034;-82
2022/01/03 06:29:34;;;;;;;9.80;1.48;;;;;;;;;;4969559;29;20015;-80
2022/01/03 06:31:59;;;;;;;5.30;1.42;;;;;;;;;;4971269;28;20027;-82
2022/01/03 06:34:25;;;;;;;11.68;1.88;;;;;;;;;;5082765;23;20043;-83
2022/01/03 06:36:51;;;;;;;7.47;1.40;;;;;;;;;;4995086;28;20023;-82
2022/01/03 06:39:16;;;;;;;5.93;1.67;;;;;;;;;;4991100;28;20021;-82
2022/01/03 06:41:42;;;;;;;8.48;1.25;;;;;;;;;;4987762;28;20105;-82
2022/01/03 06:44:07;;;;;;;8.00;1.50;;;;;;;;;;4989239;28;20026;-82
2022/01/03 06:46:33;;;;;;;10.63;1.80;;;;;;;;;;4971175;28;20086;-83
2022/01/03 06:49:00;;;;;;;5.72;1.95;;;;;;;;;;4994565;28;20038;-82
2022/01/03 06:51:28;;;;;;;6.47;1.33;;;;;;;;;;4997808;28;20015;-83
2022/01/03 06:53:57;;;;;;;;;;;;;;;;;;5001623;28;20035;-84
2022/01/03 06:56:22;;;;;;;7.90;1.60;;;;;;;;;;4981467;28;19906;-83
2022/01/03 06:58:48;;;;;;;11.90;1.52;;;;;;;;;;4995961;28;20077;-82
2022/01/03 07:01:14;;;;;;;5.45;1.70;;;;;;;;;;4999359;28;20055;-83
2022/01/03 07:03:40;;;;;;;9.13;1.85;;;;;;;;;;4980962;28;20027;-83
2022/01/03 07:06:05;;;;;;;7.22;1.20;;;;;;;;;;4979874;28;20033;-83
2022/01/03 07:08:30;;;;;;;4.07;1.33;;;;;;;;;;4979673;28;20022;-82
2022/01/03 07:10:56;;;;;;;11.93;1.58;;;;;;;;;;4994558;28;20019;-82
2022/01/03 07:13:24;;;;;;;9.63;1.33;;;;;;;;;;4994964;28;20394;-82
2022/01/03 07:21:17;;;;;;;7.97;1.40;;;;;;;;;;4995121;28;20042;-82
2022/01/03 07:23:42;;;;;;;11.00;1.52;;;;;;;;;;4972823;28;20023;-81
2022/01/03 07:26:08;;;;;;;7.25;1.52;;;;;;;;;;4971441;28;20269;-82
2022/01/03 07:28:33;;;;;;;8.98;1.33;;;;;;;;;;4973976;28;20023;-83
2022/01/03 07:30:59;;;;;;;8.68;1.30;;;;;;;;;;4972394;28;20022;-81
2022/01/03 07:33:24;;;;;;;7.07;1.30;;;;;;;;;;4974959;28;20019;-82
2022/01/03 07:35:49;;;;;;;7.90;1.48;;;;;;;;;;4996480;28;20026;-83
2022/01/03 07:38:15;;;;;;;12.43;1.60;;;;;;;;;;4998797;28;20031;-83
2022/01/03 07:40:40;;;;;;;9.77;1.30;;;;;;;;;;4981352;28;20019;-83
2022/01/03 07:43:09;;;;;;;11.80;1.40;;;;;;;;;;4999647;28;20010;-83
2022/01/03 07:45:35;;;;;;;7.97;1.48;;;;;;;;;;4985157;28;20022;-83
2022/01/03 07:48:00;;;;;;;9.75;1.70;;;;;;;;;;4980372;28;20035;-82
2022/01/03 07:50:26;;;;;;;10.68;2.17;;;;;;;;;;4998050;28;20034;-83
2022/01/03 07:52:51;;;;;;;7.63;1.30;;;;;;;;;;4997846;28;20063;-82
2022/01/03 07:55:19;;;;;;;4.53;0.88;;;;;;;;;;4979864;28;20034;-82
2022/01/03 07:57:45;;;;;;;8.30;1.30;;;;;;;;;;4996034;28;20019;-83
2022/01/03 08:00:11;;;;;;;10.30;1.33;;;;;;;;;;4994641;28;20058;-82
2022/01/03 08:02:38;;;;;;;6.60;1.27;;;;;;;;;;4977100;28;20015;-81
2022/01/03 08:05:04;;;;;;;8.05;1.42;;;;;;;;;;4993298;28;20025;-82
2022/01/03 08:07:30;;;;;;;2.95;1.08;;;;;;;;;;4971814;28;20023;-83
2022/01/03 08:09:55;;;;;;;10.65;1.60;;;;;;;;;;4971963;28;20482;-83
2022/01/03 08:12:20;;;;;;;9.95;1.58;;;;;;;;;;4966680;28;20023;-83
2022/01/03 08:14:45;;;;;;;10.00;1.75;;;;;;;;;;4984012;28;20083;-82
2022/01/03 08:17:15;;;;;;;7.45;1.48;;;;;;;;;;4994582;28;20022;-86
2022/01/03 08:19:42;;;;;;;5.32;1.30;;;;;;;;;;5645407;23;20027;-86
2022/01/03 08:42:53;;;;;;;4.38;1.05;;;;;;;;;;6056114;23;20049;-86
2022/01/03 09:16:21;;;;;;;10.90;1.60;;;;;;;;;;5210584;23;20039;-85
2022/01/03 09:29:18;;;;;;;10.80;1.52;;;;;;;;;;5295841;23;20068;-84
2022/01/03 09:31:44;;;;;;;10.38;1.90;;;;;;;;;;5178494;23;20055;-81
2022/01/03 09:34:09;;;;;;;5.10;1.20;;;;;;;;;;4961337;29;20533;-81
2022/01/03 09:36:35;;;;;;;9.57;1.83;;;;;;;;;;4961480;29;20526;-81
2022/01/03 09:39:01;;;;;;;5.18;1.13;;;;;;;;;;4962217;29;20501;-81
2022/01/03 09:41:27;;;;;;;6.63;1.20;;;;;;;;;;4962147;28;20462;-81
2022/01/03 09:43:54;;;;;;;5.15;1.42;;;;;;;;;;4962232;29;20538;-81
2022/01/03 09:46:32;;;;;;;3.28;1.05;;;;;;;;;;4945128;29;20019;-81
2022/01/03 09:48:57;;;;;;;8.65;1.73;;;;;;;;;;4960497;29;20027;-81
2022/01/03 09:51:33;;;;;;;10.90;1.52;;;;;;;;;;4959697;28;20051;-81
2022/01/03 09:54:09;;;;;;;8.63;1.33;;;;;;;;;;4959358;29;20039;-81
2022/01/03 09:56:35;;;;;;;11.30;1.45;;;;;;;;;;4960108;29;20055;-81
2022/01/03 09:59:00;;;;;;;9.40;1.33;;;;;;;;;;4941601;29;20047;-81
2022/01/03 10:01:26;;;;;;;15.30;1.33;;;;;;;;;;4942481;29;20031;-81
2022/01/03 10:03:51;;;;;;;6.05;1.50;;;;;;;;;;4960360;29;20059;-81
2022/01/03 10:06:17;;;;;;;2.72;0.80;;;;;;;;;;4943953;29;20030;-82
2022/01/03 10:08:43;;;;;;;10.02;1.20;;;;;;;;;;4963089;29;20019;-82
2022/01/03 10:11:08;;;;;;;8.27;1.38;;;;;;;;;;4962593;28;20086;-81
2022/01/03 10:13:33;;;;;;;8.40;1.30;;;;;;;;;;4963388;29;20011;-81
2022/01/03 10:15:58;;;;;;;7.35;1.20;;;;;;;;;;4962999;29;20015;-81
2022/01/03 10:18:26;;;;;;;7.40;1.60;;;;;;;;;;4962032;29;20111;-81
2022/01/03 10:20:51;;;;;;;10.68;2.00;;;;;;;;;;4961165;28;20015;-81
2022/01/03 10:23:17;;;;;;;6.00;1.77;;;;;;;;;;4961888;29;20371;-81
2022/01/03 10:25:44;;;;;;;6.85;1.33;;;;;;;;;;4964128;29;20071;-82
2022/01/03 10:28:10;;;;;;;7.70;1.48;;;;;;;;;;4963833;29;20029;-81
2022/01/03 10:30:43;;;;;;;8.20;1.42;;;;;;;;;;4947323;29;20120;-81
2022/01/03 10:33:13;;;;;;;4.53;0.90;;;;;;;;;;4965028;29;20019;-80
2022/01/03 10:35:46;;;;;;;9.05;1.98;;;;;;;;;;4945362;29;20429;-80
2022/01/03 10:38:29;;;;;;;10.15;1.25;;;;;;;;;;4962879;29;20019;-81
2022/01/03 10:41:07;;;;;;;7.78;1.30;;;;;;;;;;4944598;29;20507;-80
2022/01/03 10:43:33;;;;;;;7.15;1.42;;;;;;;;;;4962299;29;20023;-81
2022/01/03 10:45:58;;;;;;;8.98;1.25;;;;;;;;;;4961843;29;20020;-81
2022/01/03 10:48:27;;;;;;;10.48;1.33;;;;;;;;;;4962220;29;20015;-81
2022/01/03 10:50:52;;;;;;;;;;;;;;;;;;4962282;28;20075;-81
2022/01/03 10:53:30;;;;;;;10.93;1.38;;;;;;;;;;4961786;29;20338;-80
2022/01/03 10:55:55;;;;;;;9.57;1.27;;;;;;;;;;4942921;29;20023;-81
2022/01/03 10:58:30;;;;;;;8.80;1.27;;;;;;;;;;4961927;29;20058;-80
2022/01/03 11:00:56;;;;;;;6.60;1.40;;;;;;;;;;4943070;29;20386;-81
2022/01/03 11:05:51;;;;;;;9.00;1.23;;;;;;;;;;4958855;29;20025;-81
2022/01/03 11:11:00;;;;;;;10.70;1.42;;;;;;;;;;4960128;28;20026;-81
2022/01/03 11:13:26;;;;;;;6.90;1.30;;;;;;;;;;4959652;29;20023;-81
2022/01/03 11:15:52;;;;;;;8.52;1.40;;;;;;;;;;4960289;29;20106;-82
2022/01/03 11:18:27;;;;;;;8.25;1.67;;;;;;;;;;4961569;29;20467;-82
2022/01/03 11:21:09;;;;;;;6.22;0.93;;;;;;;;;;4944407;29;20043;-81
2022/01/03 11:23:35;;;;;;;6.18;1.05;;;;;;;;;;4944297;29;20019;-82
2022/01/03 11:26:07;;;;;;;7.32;1.30;;;;;;;;;;4965095;29;20078;-81
2022/01/03 11:28:33;;;;;;;4.80;1.08;;;;;;;;;;4963621;29;20022;-81
2022/01/03 11:30:59;;;;;;;8.07;1.23;;;;;;;;;;4960956;28;20466;-81
2022/01/03 11:33:25;;;;;;;5.72;1.13;;;;;;;;;;4945727;29;20485;-81
2022/01/03 11:35:50;;;;;;;4.43;1.17;;;;;;;;;;4962752;29;20471;-82
2022/01/03 11:38:18;;;;;;;7.88;1.00;;;;;;;;;;4948277;29;20016;-81
2022/01/03 11:40:44;;;;;;;7.90;1.27;;;;;;;;;;4963630;28;20015;-81
2022/01/03 11:43:09;;;;;;;6.05;1.10;;;;;;;;;;4950550;29;20470;-81
2022/01/03 11:45:35;;;;;;;8.90;1.38;;;;;;;;;;4968666;29;20074;-80
2022/01/03 11:48:01;;;;;;;11.18;1.40;;;;;;;;;;4969917;29;20042;-81
2022/01/03 11:50:27;;;;;;;8.30;1.38;;;;;;;;;;4966458;28;20019;-81
2022/01/03 11:52:52;;;;;;;5.22;0.90;;;;;;;;;;4965276;29;20058;-81
2022/01/03 11:55:18;;;;;;;6.45;1.40;;;;;;;;;;4963214;29;20652;-81
2022/01/03 11:57:57;;;;;;;9.65;1.40;;;;;;;;;;4963093;29;20398;-81
2022/01/03 12:05:52;;;;;;;6.38;1.10;;;;;;;;;;4964808;29;20063;-81
2022/01/03 12:08:20;;;;;;;6.20;1.30;;;;;;;;;;4964784;29;20102;-80
2022/01/03 12:10:46;;;;;;;7.63;1.20;;;;;;;;;;4962745;28;20503;-81
2022/01/03 12:13:12;;;;;;;5.40;1.08;;;;;;;;;;4962027;29;20076;-81
2022/01/03 12:15:41;;;;;;;9.35;1.17;;;;;;;;;;4962698;29;20054;-81
2022/01/03 12:18:06;;;;;;;;;;;;;;;;;;4962241;29;20031;-81
2022/01/03 12:20:38;;;;;;;6.65;1.05;;;;;;;;;;4961465;28;19954;-81
2022/01/03 12:23:04;;;;;;;7.55;1.42;;;;;;;;;;4962462;29;20023;-81
2022/01/03 12:25:31;;;;;;;7.78;1.00;;;;;;;;;;4961722;29;20143;-81
2022/01/03 12:28:02;;;;;;;8.90;2.10;;;;;;;;;;4964166;29;20510;-80
2022/01/03 12:30:32;;;;;;;4.55;1.00;;;;;;;;;;4946515;29;20015;-81
2022/01/03 12:33:16;;;;;;;6.15;1.00;;;;;;;;;;4946640;29;20170;-81
2022/01/03 12:35:42;;;;;;;8.52;0.90;;;;;;;;;;4967678;29;20019;-82
2022/01/03 12:38:12;;;;;;;4.70;1.00;;;;;;;;;;4967226;29;20019;-82
2022/01/03 12:40:51;;;;;;;9.13;1.00;;;;;;;;;;4972810;28;20027;-83
2022/01/03 12:43:18;;;;;;;10.23;1.50;;;;;;;;;;4951724;29;20073;-82
2022/01/03 12:45:43;;;;;;;11.27;1.30;;;;;;;;;;4967544;28;20027;-81
2022/01/03 12:48:11;;;;;;;8.52;1.13;;;;;;;;;;4967387;29;20030;-81
2022/01/03 12:50:36;;;;;;;8.77;1.35;;;;;;;;;;4948494;29;20019;-82
2022/01/03 12:53:02;;;;;;;14.02;1.75;;;;;;;;;;4964394;29;20019;-81
2022/01/03 12:55:37;;;;;;;8.43;1.55;;;;;;;;;;4946776;29;20050;-82
2022/01/03 12:58:14;;;;;;;11.55;1.30;;;;;;;;;;4952898;29;20023;-81
2022/01/03 13:00:41;;;;;;;3.28;0.88;;;;;;;;;;4969891;28;20550;-83
2022/01/03 13:03:22;;;;;;;6.40;0.90;;;;;;;;;;4971366;29;20026;-82
2022/01/03 13:06:06;;;;;;;6.60;0.90;;;;;;;;;;4971010;29;20025;-80
2022/01/03 13:08:32;;;;;;;9.45;2.03;;;;;;;;;;4959885;29;20055;-79
2022/01/03 13:11:01;;;;;;;9.35;1.27;;;;;;;;;;4942456;29;20091;-80
2022/01/03 13:13:28;;;;;;;2.88;0.85;;;;;;;;;;4942927;29;20635;-80
2022/01/03 13:15:53;;;;;;;3.45;0.88;;;;;;;;;;4943198;29;20055;-80
2022/01/03 13:18:18;;;;;;;4.40;1.05;;;;;;;;;;4961218;29;20030;-83
2022/01/03 13:20:59;;;;;;;3.80;1.00;;;;;;;;;;4960023;28;20056;-80
2022/01/03 13:23:24;;;;;;;4.15;0.80;;;;;;;;;;4959625;29;20023;-79
2022/01/03 13:25:50;;;;;;;4.45;1.10;;;;;;;;;;4943479;29;20405;-80
2022/01/03 13:28:15;;;;;;;4.03;1.10;;;;;;;;;;4959617;29;20485;-79
2022/01/03 13:30:58;;;;;;;5.05;1.30;;;;;;;;;;4958709;28;20124;-80
2022/01/03 13:33:24;;;;;;;6.47;2.10;;;;;;;;;;4958164;29;20026;-80
2022/01/03 13:36:02;;;;;;;8.20;1.17;;;;;;;;;;4958840;29;20023;-80
2022/01/03 13:38:28;;;;;;;5.00;1.10;;;;;;;;;;4940697;29;20378;-80
2022/01/03 13:40:54;;;;;;;5.18;0.80;;;;;;;;;;4958611;28;20023;-80
2022/01/03 13:43:25;;;;;;;6.00;0.90;;;;;;;;;;4957969;29;20019;-80
2022/01/03 13:51:06;;;;;;;9.50;2.00;;;;;;;;;;4957366;28;20039;-80
2022/01/03 13:53:32;;;;;;;4.90;1.10;;;;;;;;;;4956939;29;20059;-81
2022/01/03 13:55:57;;;;;;;5.07;1.08;;;;;;;;;;4940076;29;20035;-81
2022/01/03 13:58:24;;;;;;;3.40;1.00;;;;;;;;;;4956092;29;20093;-81
2022/01/03 14:00:58;;;;;;;9.30;1.25;;;;;;;;;;4956534;28;20065;-80
2022/01/03 14:03:29;;;;;;;6.07;1.30;;;;;;;;;;4939959;29;20482;-81
2022/01/03 14:06:15;;;;;;;5.60;1.00;;;;;;;;;;4956067;29;20467;-80
2022/01/03 14:08:40;;;;;;;7.90;1.00;;;;;;;;;;4956003;29;20104;-79
2022/01/03 14:11:11;;;;;;;6.28;1.27;;;;;;;;;;4956328;28;20023;-80
2022/01/03 14:13:36;;;;;;;6.50;0.90;;;;;;;;;;4956723;29;20019;-80
2022/01/03 14:16:06;;;;;;;5.15;1.10;;;;;;;;;;4940278;29;20015;-80
2022/01/03 14:18:32;;;;;;;8.80;1.30;;;;;;;;;;4956253;29;20022;-80
2022/01/03 14:21:04;;;;;;;10.02;1.20;;;;;;;;;;4956348;28;20021;-80
2022/01/03 14:23:30;;;;;;;11.88;1.77;;;;;;;;;;4955103;29;20026;-80
2022/01/03 14:26:09;;;;;;;3.55;0.90;;;;;;;;;;4956707;29;20019;-81
2022/01/03 14:28:37;;;;;;;6.43;1.10;;;;;;;;;;4940487;29;20023;-80
2022/01/03 14:31:02;;;;;;;4.88;0.98;;;;;;;;;;4957877;28;20061;-80
2022/01/03 14:33:27;;;;;;;7.05;1.10;;;;;;;;;;4940059;29;20487;-80
2022/01/03 14:35:53;;;;;;;6.15;1.02;;;;;;;;;;4941803;29;20015;-79
2022/01/03 14:38:23;;;;;;;8.02;1.20;;;;;;;;;;4960574;29;20102;-81
2022/01/03 14:40:53;;;;;;;7.80;1.85;;;;;;;;;;4941327;29;20027;-81
2022/01/03 14:43:22;;;;;;;6.40;1.55;;;;;;;;;;4959868;29;20034;-80
2022/01/03 14:45:49;;;;;;;7.68;1.50;;;;;;;;;;4940542;29;20031;-80
2022/01/03 14:48:21;;;;;;;8.20;1.48;;;;;;;;;;4959968;29;20537;-81
2022/01/03 14:50:46;;;;;;;6.38;1.20;;;;;;;;;;4941655;29;20019;-81
2022/01/03 14:53:12;;;;;;;7.18;1.17;;;;;;;;;;4958502;29;20090;-81
2022/01/03 14:55:42;;;;;;;5.43;1.15;;;;;;;;;;4959106;29;20022;-81
2022/01/03 14:58:07;;;;;;;6.90;1.33;;;;;;;;;;4959320;29;20062;-81
2022/01/03 15:00:34;;;;;;;6.88;1.83;;;;;;;;;;4958496;28;20387;-81
2022/01/03 15:03:03;;;;;;;3.90;1.38;;;;;;;;;;4958231;29;20027;-82
2022/01/03 15:05:28;;;;;;;7.60;1.15;;;;;;;;;;4970665;29;20030;-82
2022/01/03 15:07:54;;;;;;;7.00;1.30;;;;;;;;;;4975557;28;20004;-82
2022/01/03 15:10:20;;;;;;;6.65;1.10;;;;;;;;;;4979499;28;20019;-82
2022/01/03 15:12:47;;;;;;;6.20;1.40;;;;;;;;;;4963464;29;20042;-82
2022/01/03 15:15:12;;;;;;;5.38;1.55;;;;;;;;;;4977919;29;20043;-83
2022/01/03 15:17:38;;;;;;;13.55;1.50;;;;;;;;;;4978288;29;20023;-83
2022/01/03 15:20:04;;;;;;;6.78;1.40;;;;;;;;;;4979038;28;20031;-83
2022/01/03 15:25:03;;;;;;;9.38;1.92;;;;;;;;;;4988893;28;20043;-83
2022/01/03 15:27:28;;;;;;;9.77;1.30;;;;;;;;;;5009943;28;20082;-82
2022/01/03 15:29:54;;;;;;;10.10;1.73;;;;;;;;;;4992721;28;20019;-83
2022/01/03 15:32:19;;;;;;;8.77;1.40;;;;;;;;;;4993480;28;20039;-81
2022/01/03 15:34:45;;;;;;;7.13;1.55;;;;;;;;;;4994062;28;20019;-82
2022/01/03 15:37:11;;;;;;;5.22;1.30;;;;;;;;;;4992099;28;20019;-82
2022/01/03 15:39:37;;;;;;;5.40;1.30;;;;;;;;;;4995134;28;20038;-83
2022/01/03 15:42:03;;;;;;;6.47;1.70;;;;;;;;;;4993345;28;20030;-83
2022/01/03 15:44:29;;;;;;;9.45;2.67;;;;;;;;;;4993613;28;20442;-81
2022/01/03 15:46:54;;;;;;;4.72;1.42;;;;;;;;;;4992950;28;20019;-82
2022/01/03 15:49:20;;;;;;;6.20;1.35;;;;;;;;;;4993339;28;20014;-81
2022/01/03 15:51:46;;;;;;;5.35;1.27;;;;;;;;;;4994109;28;20019;-82
2022/01/03 15:54:11;;;;;;;8.02;1.63;;;;;;;;;;4995785;28;20022;-83
2022/01/03 15:56:37;;;;;;;4.15;1.17;;;;;;;;;;4995440;28;20023;-82
2022/01/03 15:59:02;;;;;;;11.32;1.90;;;;;;;;;;4994603;28;20046;-82
2022/01/03 16:01:31;;;;;;;8.77;1.90;;;;;;;;;;4988674;28;20027;-82
2022/01/03 16:03:56;;;;;;;6.80;1.45;;;;;;;;;;4988112;28;20079;-83
2022/01/03 16:06:21;;;;;;;7.97;1.90;;;;;;;;;;4984859;28;20050;-82
2022/01/03 16:08:47;;;;;;;8.85;1.38;;;;;;;;;;4985974;28;20397;-81
2022/01/03 16:11:12;;;;;;;5.68;1.23;;;;;;;;;;4985880;28;20050;-82
2022/01/03 16:13:37;;;;;;;10.00;1.90;;;;;;;;;;4985063;28;20019;-81
2022/01/03 16:16:03;;;;;;;9.00;1.92;;;;;;;;;;4985880;28;20015;-83
2022/01/03 16:18:29;;;;;;;6.93;1.42;;;;;;;;;;4987155;28;20023;-82
2022/01/03 16:20:55;;;;;;;7.65;1.80;;;;;;;;;;4989662;28;20025;-82
2022/01/03 16:23:20;;;;;;;5.47;1.27;;;;;;;;;;4992072;28;20023;-83
2022/01/03 16:25:46;;;;;;;10.27;2.15;;;;;;;;;;4991215;28;20022;-81
2022/01/03 16:28:11;;;;;;;7.20;1.70;;;;;;;;;;4991692;28;20023;-83
2022/01/03 16:30:36;;;;;;;8.18;1.63;;;;;;;;;;4990919;28;20018;-82
2022/01/03 16:33:11;;;;;;;6.97;1.27;;;;;;;;;;4992026;28;20026;-82
2022/01/03 16:35:37;;;;;;;4.70;1.67;;;;;;;;;;4989824;28;20606;-82
2022/01/03 16:38:02;;;;;;;12.10;1.70;;;;;;;;;;4986822;28;20033;-82
2022/01/03 16:40:30;;;;;;;7.05;1.48;;;;;;;;;;4986956;28;20050;-82
2022/01/03 16:42:56;;;;;;;6.75;1.60;;;;;;;;;;4987228;28;20030;-82
2022/01/03 16:45:21;;;;;;;5.25;1.60;;;;;;;;;;4988982;28;20058;-83
2022/01/03 16:47:53;;;;;;;6.80;2.60;;;;;;;;;;4991962;28;20023;-83
2022/01/03 16:50:19;;;;;;;5.75;1.77;;;;;;;;;;4990347;28;20030;-82
2022/01/03 16:52:44;;;;;;;8.40;2.15;;;;;;;;;;4990558;28;20026;-83
2022/01/03 16:55:10;;;;;;;7.25;1.90;;;;;;;;;;4989875;28;20406;-81
2022/01/03 16:57:36;;;;;;;6.50;1.70;;;;;;;;;;4987310;28;20095;-82
2022/01/03 17:00:03;;;;;;;11.40;2.08;;;;;;;;;;4988104;28;20113;-81
2022/01/03 17:02:29;;;;;;;5.50;1.65;;;;;;;;;;4985611;28;20019;-81
2022/01/03 17:04:55;;;;;;;4.65;1.48;;;;;;;;;;4982397;28;20137;-83
2022/01/03 17:07:20;;;;;;;8.55;1.48;;;;;;;;;;4985300;28;20023;-80
2022/01/03 17:09:45;;;;;;;5.75;1.50;;;;;;;;;;4987449;28;20044;-83
2022/01/03 17:12:13;;;;;;;3.92;1.10;;;;;;;;;;4984444;28;20187;-82
2022/01/03 17:14:39;;;;;;;6.15;1.70;;;;;;;;;;4983167;28;20019;-81
2022/01/03 17:17:05;;;;;;;5.25;1.83;;;;;;;;;;4985929;28;20019;-81
2022/01/03 17:19:30;;;;;;;7.88;1.80;;;;;;;;;;4985813;28;20018;-81
2022/01/03 17:21:55;;;;;;;5.30;1.17;;;;;;;;;;4984774;28;20385;-82
2022/01/03 17:24:21;;;;;;;6.30;1.20;;;;;;;;;;4985503;28;20036;-83
2022/01/03 17:26:46;;;;;;;5.10;1.30;;;;;;;;;;4985102;28;20700;-82
2022/01/03 17:29:11;;;;;;;8.30;1.80;;;;;;;;;;4987604;28;20041;-83
2022/01/03 17:31:37;;;;;;;6.80;1.70;;;;;;;;;;4984015;28;20405;-81
2022/01/03 17:34:02;;;;;;;4.13;1.30;;;;;;;;;;4984188;28;20019;-82
2022/01/03 17:36:28;;;;;;;9.15;1.52;;;;;;;;;;4981198;28;20022;-80
2022/01/03 17:38:54;;;;;;;7.57;1.60;;;;;;;;;;4978166;28;20023;-81
2022/01/03 17:41:20;;;;;;;9.93;2.97;;;;;;;;;;4989891;28;20041;-83
2022/01/03 17:43:45;;;;;;;6.57;1.88;;;;;;;;;;4989445;28;20030;-80
2022/01/03 17:46:11;;;;;;;8.80;1.65;;;;;;;;;;4990161;28;20023;-82
2022/01/03 17:48:37;;;;;;;9.38;2.10;;;;;;;;;;4985285;28;20057;-81
2022/01/03 17:51:04;;;;;;;8.27;2.60;;;;;;;;;;4987641;28;20037;-81
2022/01/03 17:53:30;;;;;;;3.47;1.20;;;;;;;;;;4985264;28;20049;-82
2022/01/03 17:55:55;;;;;;;4.85;1.05;;;;;;;;;;4986069;28;20015;-82